Latest Weather Observations for Maryborough

IDQ60801

Issued at 12:32 pm EST Tuesday 17 January 2017 (issued every 30 minutes, with the page automatically refreshed every 10 minutes)

About weather observations | Map of weather stations | Latest weather observations for QLD | Other Formats
Station Details ID: 040126 Name: MARYBOROUGH Lat: -25.51 Lon: 152.72 Height: 8.98 m
Data from the previous 72 hours. | See also: Recent months at Maryborough
Date/Time
EST
Temp
°C
App
Temp
°C
Dew
Point
°C
Rel
Hum
%
Delta-T
°C
Wind Press
QNH
hPa
Press
MSL
hPa
Rain since
9am
mm
Dir  Spd
km/h
Gust
km/h
Spd
kts
Gust
kts
17/12:30pm 32.8 31.6 17.0 38 10.0 ESE 19 26 10 14 1015.0 - 0.0
17/12:00pm 33.2 32.7 17.8 40 9.9 ESE 17 24 9 13 1015.4 1015.3 0.0
17/11:30am 31.3 31.5 17.6 44 8.7 NE 13 22 7 12 1015.7 - 0.0
17/11:00am 32.1 31.9 17.6 42 9.3 E 15 28 8 15 1016.0 - 0.0
17/10:30am 32.8 33.4 18.6 43 9.2 E 13 20 7 11 1016.2 - 0.0
17/10:00am 30.4 30.5 17.5 46 8.2 E 13 26 7 14 1016.4 - 0.0
17/09:30am 30.7 31.2 18.4 47 7.9 ENE 13 19 7 10 1016.5 - 0.0
17/09:00am 30.7 32.4 19.4 51 7.4 NE 9 20 5 11 1016.7 1016.6 0.0
17/08:30am 28.8 29.8 19.4 56 6.1 ENE 13 17 7 9 1016.8 - 0.0
17/08:00am 28.1 30.6 21.1 65 4.7 E 9 15 5 8 1016.7 - 0.0
17/07:30am 27.1 29.4 21.4 71 3.8 SE 11 15 6 8 1016.8 - 0.0
17/07:00am 25.2 28.4 21.7 81 2.3 S 7 11 4 6 1016.5 - 0.0
17/06:30am 23.9 26.7 21.6 87 1.5 S 9 11 5 6 1016.3 - 0.0
17/06:00am 22.8 26.3 21.8 94 0.7 S 6 7 3 4 1016.0 1015.9 0.0
17/05:30am 21.7 24.4 20.3 92 0.9 S 6 7 3 4 1015.8 - 0.0
17/05:00am 22.1 24.8 21.3 95 0.5 S 9 11 5 6 1015.3 - 0.0
17/04:30am 22.1 25.1 21.3 95 0.5 S 7 7 4 4 1015.1 - 0.0
17/04:00am 21.8 24.7 21.1 96 0.5 S 7 11 4 6 1014.8 - 0.0
17/03:30am 21.7 24.2 21.0 96 0.5 S 9 13 5 7 1014.6 - 0.0
17/03:00am 21.3 23.5 20.5 95 0.5 S 9 11 5 6 1014.6 1014.5 0.0
17/02:30am 21.6 23.7 20.9 96 0.5 S 11 13 6 7 1014.6 - 0.0
17/02:00am 21.5 23.8 20.7 95 0.5 S 9 9 5 5 1014.7 - 0.0
17/01:30am 21.5 23.8 20.7 95 0.5 S 9 11 5 6 1014.9 - 0.0
17/01:00am 22.2 25.3 21.4 95 0.5 SSE 7 9 4 5 1015.1 - 0.0
17/12:30am 22.3 25.5 21.6 96 0.5 SE 7 7 4 4 1015.2 - 0.0
17/12:08am 22.3 26.8 21.5 95 0.5 CALM 0 0 0 0 1015.3 - 0.0
17/12:00am 21.9 25.6 20.7 93 0.8 SE 2 6 1 3 1015.4 1015.3 0.0
 
Date/Time
EST
Temp
°C
App
Temp
°C
Dew
Point
°C
Rel
Hum
%
Delta-T
°C
Wind Press
QNH
hPa
Press
MSL
hPa
Rain since
9am
mm
Dir  Spd
km/h
Gust
km/h
Spd
kts
Gust
kts
16/11:30pm 22.2 25.1 21.0 93 0.8 SE 7 9 4 5 1015.7 - 0.0
16/11:00pm 21.5 23.7 19.2 87 1.5 SE 6 7 3 4 1015.9 - 0.0
16/10:30pm 22.2 24.5 19.4 84 1.8 SE 6 7 3 4 1015.9 - 0.0
16/10:00pm 23.5 26.3 20.8 85 1.8 ESE 7 9 4 5 1016.1 - 0.0
16/09:30pm 24.2 27.0 20.9 82 2.2 ESE 7 9 4 5 1016.1 - 0.0
16/09:00pm 25.0 27.9 21.7 82 2.2 E 9 13 5 7 1015.9 1015.8 0.0
16/08:30pm 25.2 28.0 21.5 80 2.5 E 9 13 5 7 1015.8 - 0.0
16/08:00pm 25.5 28.6 21.4 78 2.7 ESE 7 13 4 7 1015.5 - 0.0
16/07:30pm 25.9 28.4 21.1 75 3.2 E 9 13 5 7 1015.4 - 0.0
16/07:00pm 26.6 28.3 20.9 71 3.8 ESE 13 19 7 10 1015.0 - 0.0
16/06:30pm 27.7 29.2 20.5 65 4.7 E 13 26 7 14 1014.5 - 0.0
16/06:00pm 28.7 29.3 20.2 60 5.6 E 17 24 9 13 1014.2 1014.1 0.0
16/05:30pm 29.7 30.2 20.0 56 6.4 E 17 26 9 14 1013.7 - 0.0
16/05:00pm 30.2 30.6 19.9 54 6.8 E 17 28 9 15 1013.2 - 0.0
16/04:30pm 30.0 30.3 19.7 54 6.7 E 17 32 9 17 1012.9 - 0.0
16/04:00pm 31.6 31.9 20.5 51 7.4 E 19 28 10 15 1012.6 - 0.0
16/03:30pm 32.4 32.9 20.0 48 8.2 E 17 28 9 15 1012.6 - 0.0
16/03:00pm 32.8 33.1 20.7 49 8.1 ESE 20 28 11 15 1012.6 1012.5 0.0
16/02:30pm 31.2 30.9 19.2 48 7.8 ESE 19 28 10 15 1012.8 - 0.0
16/02:00pm 32.2 32.1 18.8 45 8.7 ESE 17 32 9 17 1012.8 - 0.0
16/01:30pm 32.2 32.2 19.8 48 8.2 ESE 19 30 10 16 1012.9 - 0.0
16/01:00pm 33.5 33.4 19.9 44 9.0 ENE 20 30 11 16 1012.9 - 0.0
16/12:30pm 32.9 33.6 19.7 45 8.7 ENE 15 30 8 16 1013.1 - 0.0
16/12:00pm 33.1 33.5 19.9 45 8.7 ENE 17 32 9 17 1013.3 1013.2 0.0
16/11:30am 33.4 34.1 20.5 46 8.6 E 17 28 9 15 1013.4 - 0.0
16/11:00am 31.9 33.2 20.8 51 7.4 E 15 20 8 11 1013.8 - 0.0
16/10:30am 31.0 31.3 18.7 48 8.0 E 15 26 8 14 1013.9 - 0.0
16/10:00am 31.2 32.1 19.2 48 7.8 ENE 13 24 7 13 1013.9 - 0.0
16/09:30am 30.5 31.8 19.2 51 7.4 ESE 11 19 6 10 1013.9 - 0.0
16/09:00am 29.0 29.7 19.6 57 6.1 E 15 24 8 13 1014.0 1013.9 1.2
16/08:30am 29.1 30.6 19.7 57 6.1 NE 11 17 6 9 1014.0 - 1.2
16/08:00am 29.2 31.1 20.6 59 5.7 E 11 15 6 8 1013.9 - 1.2
16/07:30am 28.0 30.4 20.8 65 4.8 E 9 17 5 9 1013.7 - 1.2
16/07:00am 27.1 29.3 21.2 70 3.9 E 11 19 6 10 1013.5 - 1.2
16/06:30am 25.8 29.6 22.7 83 2.1 E 7 11 4 6 1013.1 - 1.2
16/06:00am 24.0 28.7 23.3 96 0.5 ESE 4 7 2 4 1012.8 1012.7 1.2
16/05:54am 23.6 28.8 22.9 96 0.5 CALM 0 6 0 3 1012.7 - 1.2
16/05:30am 23.0 26.7 22.3 96 0.5 ESE 6 7 3 4 1012.4 - 1.2
16/05:03am 22.7 25.9 21.7 94 0.7 ESE 7 7 4 4 1012.0 - 1.2
16/05:00am 22.7 26.1 21.7 94 0.7 ESE 6 7 3 4 1012.0 - 1.2
16/04:30am 22.9 26.2 21.9 94 0.7 ESE 7 9 4 5 1011.7 - 1.2
16/04:00am 22.4 25.8 20.9 91 1.0 E 4 7 2 4 1011.5 - 1.2
16/03:49am 22.4 25.4 20.9 91 1.0 ESE 6 7 3 4 1011.4 - 1.2
16/03:30am 23.1 27.1 21.4 90 1.1 E 2 6 1 3 1011.2 - 1.2
16/03:14am 23.3 27.6 21.2 88 1.4 CALM 0 0 0 0 1011.3 - 1.2
16/03:00am 23.8 28.4 21.7 88 1.4 CALM 0 0 0 0 1011.1 1011.0 1.2
16/02:30am 24.5 29.4 22.4 88 1.4 CALM 0 4 0 2 1011.3 - 1.2
16/02:00am 24.7 28.6 22.6 88 1.4 E 6 7 3 4 1011.2 - 1.2
16/01:30am 24.8 28.4 22.3 86 1.7 E 7 9 4 5 1011.3 - 1.2
16/01:00am 25.2 29.5 22.7 86 1.7 E 4 7 2 4 1011.5 - 1.2
16/12:30am 25.6 30.8 22.9 85 1.8 CALM 0 0 0 0 1011.7 - 1.2
16/12:00am 25.8 30.6 22.9 84 2.0 E 2 7 1 4 1012.1 1012.0 1.2
 
Date/Time
EST
Temp
°C
App
Temp
°C
Dew
Point
°C
Rel
Hum
%
Delta-T
°C
Wind Press
QNH
hPa
Press
MSL
hPa
Rain since
9am
mm
Dir  Spd
km/h
Gust
km/h
Spd
kts
Gust
kts
15/11:30pm 26.0 30.1 23.3 85 1.8 E 7 9 4 5 1012.3 - 1.2
15/11:00pm 26.0 30.3 23.3 85 1.8 ENE 6 9 3 5 1012.2 - 1.2
15/10:30pm 26.2 30.5 23.7 86 1.7 NE 7 11 4 6 1012.2 - 1.2
15/10:00pm 26.2 31.1 23.7 86 1.7 E 4 7 2 4 1012.3 - 1.2
15/09:30pm 26.2 30.9 23.9 87 1.6 NE 6 9 3 5 1012.0 - 1.2
15/09:00pm 26.4 30.5 23.9 86 1.7 NE 9 15 5 8 1011.4 1011.3 1.2
15/08:30pm 27.1 31.6 24.0 83 2.1 NNE 7 11 4 6 1011.1 - 1.2
15/08:00pm 27.1 31.5 23.8 82 2.3 NNE 7 9 4 5 1010.7 - 1.2
15/07:30pm 27.2 31.4 23.2 79 2.7 NNE 6 9 3 5 1010.6 - 1.2
15/07:00pm 27.6 31.4 23.4 78 2.9 N 9 15 5 8 1010.2 - 1.2
15/06:30pm 27.8 31.6 23.4 77 3.0 N 9 13 5 7 1009.9 - 1.2
15/06:00pm 28.0 31.2 23.1 74 3.3 N 11 20 6 11 1009.5 1009.4 1.2
15/05:30pm 28.2 31.6 23.3 75 3.4 N 11 17 6 9 1008.9 - 1.2
15/05:00pm 28.3 31.1 23.0 73 3.6 N 13 20 7 11 1008.3 - 1.2
15/04:30pm 28.8 31.1 22.1 67 4.5 N 13 24 7 13 1008.1 - 1.2
15/04:00pm 29.5 32.2 22.2 65 4.9 N 11 22 6 12 1007.7 - 1.2
15/03:30pm 30.1 31.3 21.5 60 5.8 NNE 17 24 9 13 1007.1 - 1.2
15/03:00pm 30.9 31.8 20.8 55 6.7 NNE 17 32 9 17 1006.9 1006.8 1.2
15/02:30pm 31.8 33.0 22.2 56 6.5 N 19 30 10 16 1007.2 - 1.2
15/02:00pm 33.5 35.1 23.2 54 7.1 N 20 32 11 17 1007.5 - 1.2
15/01:30pm 33.2 35.5 23.5 56 6.7 NNE 17 28 9 15 1007.7 - 1.0
15/01:00pm 32.0 34.5 23.8 62 5.7 N 17 28 9 15 1008.3 - 1.0
15/12:30pm 31.3 33.6 23.4 63 5.5 N 17 24 9 13 1008.4 - 1.0
15/12:00pm 31.3 32.8 23.7 64 5.3 N 22 33 12 18 1008.3 1008.2 1.0
15/11:30am 30.9 32.8 23.8 66 4.9 N 20 30 11 16 1008.3 - 1.0
15/11:00am 29.6 32.2 24.0 72 3.9 NNE 17 28 9 15 1008.7 - 1.0
15/10:30am 29.6 33.1 24.9 76 3.3 N 15 28 8 15 1008.9 - 1.0
15/10:00am 28.0 31.5 24.8 83 2.2 N 15 24 8 13 1009.0 - 1.0
15/09:59am 28.2 32.1 25.4 85 2.0 N 15 24 8 13 1009.0 - 1.0
15/09:41am 27.8 30.9 24.8 84 2.1 N 17 26 9 14 1009.0 - 0.8
15/09:30am 29.1 32.1 24.0 74 3.5 N 15 22 8 12 1009.0 - 0.0
15/09:00am 29.1 31.0 23.5 72 3.9 N 19 28 10 15 1008.9 1008.8 0.2
15/08:30am 28.2 30.9 24.2 79 2.8 N 17 26 9 14 1008.8 - 0.2
15/08:13am 28.3 32.1 24.7 81 2.5 N 13 22 7 12 1008.7 - 0.2
15/08:00am 28.1 31.6 24.9 83 2.2 N 15 22 8 12 1008.8 - 0.2
15/07:35am 27.7 32.4 24.9 85 2.0 NNE 9 15 5 8 1009.0 - 0.2
15/07:30am 27.7 32.5 25.1 86 1.8 N 9 15 5 8 1009.1 - 0.2
15/07:00am 27.3 32.2 25.3 89 1.4 NNE 9 13 5 7 1008.9 - 0.2
15/06:30am 26.6 31.7 25.0 91 1.1 NNE 7 9 4 5 1008.9 - 0.2
15/06:00am 26.5 32.8 24.7 90 1.3 CALM 0 0 0 0 1008.7 1008.6 0.2
15/05:50am 26.5 32.8 24.7 90 1.3 CALM 0 0 0 0 1008.6 - 0.2
15/05:30am 26.8 32.4 24.8 89 1.4 WNW 4 7 2 4 1008.2 - 0.2
15/05:16am 26.7 32.7 24.2 86 1.7 CALM 0 0 0 0 1008.0 - 0.0
15/05:00am 26.7 32.8 24.4 87 1.6 CALM 0 0 0 0 1007.8 - 0.0
15/04:57am 26.7 32.8 24.4 87 1.6 CALM 0 0 0 0 1007.7 - 0.0
15/04:30am 26.7 31.6 24.4 87 1.6 NNW 6 7 3 4 1007.6 - 0.0
15/04:00am 26.4 31.2 24.1 87 1.6 N 6 7 3 4 1007.1 - 0.0
15/03:51am 26.4 31.2 24.1 87 1.6 N 6 7 3 4 1007.1 - 0.0
15/03:30am 26.4 31.0 24.1 87 1.6 N 7 11 4 6 1007.0 - 0.0
15/03:00am 26.5 31.0 24.0 86 1.7 N 7 11 4 6 1007.1 1007.0 0.0
15/02:30am 26.5 30.9 23.8 85 1.9 N 7 9 4 5 1007.1 - 0.0
15/02:00am 26.6 30.7 23.9 85 1.9 N 9 13 5 7 1006.8 - 0.0
15/01:30am 26.6 30.2 23.7 84 2.0 N 11 17 6 9 1006.9 - 0.0
15/01:00am 26.7 30.5 23.4 82 2.3 N 9 13 5 7 1007.2 - 0.0
15/12:30am 26.9 30.4 23.6 82 2.3 N 11 17 6 9 1007.7 - 0.0
15/12:00am 27.3 29.7 23.7 81 2.5 NNW 17 26 9 14 1008.3 1008.2 0.0
 
Date/Time
EST
Temp
°C
App
Temp
°C
Dew
Point
°C
Rel
Hum
%
Delta-T
°C
Wind Press
QNH
hPa
Press
MSL
hPa
Rain since
9am
mm
Dir  Spd
km/h
Gust
km/h
Spd
kts
Gust
kts
14/11:30pm 27.4 30.8 24.0 82 2.3 N 13 19 7 10 1008.3 - 0.0
14/11:00pm 27.3 30.8 24.2 83 2.1 N 13 26 7 14 1008.1 - 0.0
14/10:30pm 27.2 30.6 24.1 83 2.1 N 13 20 7 11 1008.2 - 0.0
14/10:00pm 27.0 30.3 23.9 83 2.1 N 13 19 7 10 1008.3 - 0.0
14/09:30pm 27.0 30.7 23.9 83 2.1 N 11 19 6 10 1008.0 - 0.0
14/09:00pm 27.1 31.1 23.8 82 2.3 N 9 15 5 8 1007.8 1007.7 0.0
14/08:30pm 27.3 30.9 23.7 81 2.5 N 11 19 6 10 1007.7 - 0.0
14/08:00pm 27.5 30.4 23.9 81 2.5 N 15 22 8 12 1007.3 - 0.0
14/07:30pm 27.5 30.7 23.7 80 2.6 N 13 20 7 11 1006.9 - 0.0
14/07:00pm 27.7 30.4 23.5 78 2.9 N 15 30 8 16 1006.7 - 0.0
14/06:30pm 28.2 30.6 23.6 76 3.2 N 17 30 9 16 1006.3 - 0.0
14/06:00pm 28.9 30.5 23.3 72 3.8 N 20 30 11 16 1006.1 1006.0 0.0
14/05:30pm 29.6 31.2 23.3 69 4.3 N 20 35 11 19 1005.7 - 0.0
14/05:00pm 29.8 31.3 23.0 67 4.7 N 20 35 11 19 1005.6 - 0.0
14/04:30pm 31.1 32.4 22.7 61 5.7 N 20 33 11 18 1005.5 - 0.0
14/04:00pm 32.2 33.6 22.9 58 6.4 N 20 33 11 18 1005.7 - 0.0
14/03:30pm 32.8 33.2 23.2 57 6.6 N 26 35 14 19 1006.0 - 0.0
14/03:00pm 32.2 32.7 22.6 57 6.6 N 24 35 13 19 1006.4 1006.3 0.0
14/02:30pm 33.2 33.5 22.3 52 7.5 N 24 33 13 18 1006.8 - 0.0
14/02:00pm 32.7 34.1 22.8 56 6.8 N 20 35 11 19 1007.0 - 0.0
14/01:30pm 34.1 35.9 23.5 54 7.4 N 20 32 11 17 1007.4 - 0.0
14/01:00pm 32.5 34.1 23.2 58 6.4 N 20 32 11 17 1007.6 - 0.0

Other Formats:

Comma delimited format used in spreadsheet applications
http://www.bom.gov.au/fwo/IDQ60801/IDQ60801.94567.axf

JavaScript Object Notation format (JSON) in row-major order
http://www.bom.gov.au/fwo/IDQ60801/IDQ60801.94567.json